Main page
METAR-TAF:

Airports :

Tel Aviv / Ben Gurion, Israel

Ben Gurion Airport

latitude: 32-00N, longitude: 034-54E, elevation: 40 m

Current weather observation

The report was made 31 minutes ago, at 04:50 UTC
Wind 1 kt from variable directions
Temperature 8°C
Humidity 87%
Pressure 1024 hPa
Visibility 10 km or more
no clouds below 1500 m and no cumulonimbus

METAR: LLBG 090450Z VRB01KT CAVOK 08/06 Q1024 NOSIG RMK BKN070

Time: 07:21 (05:21 UTC)

Forecast

The report was made 6 hours and 13 minutes ago, at 23:08 UTC
Forecast valid from 09 at 00 UTC to 09 at 24 UTC
Wind 6 kt from the East
Visibility 10 km or more
Scattered clouds at a height of 4000 ft
Becoming
from 09 at 07 UTC to 09 at 09 UTC
Wind 10 kt from the North/Northwest
Few clouds at a height of 4000 ft
Becoming
from 09 at 15 UTC to 09 at 17 UTC
Wind 5 kt from the Southeast

TAF: LLBG 082308Z 0900/0924 08006KT 9999 SCT040 BECMG 0907/0909 34010KT FEW040 BECMG 0915/0917 14005KT TX18/0912Z TN08/0904Z

METAR-TAF

Weather observations and forecasts of more than 4000 airports (METAR and TAF reports).

The available stations are represented by yellow and red dots on the map.

Hover mouse over dot to see the name of the station.

Then click to see weather observations and forecasts.

To change the map : click on the green buttons with a black cross to zoom in, on the green button with a dash to zoom out, or on the green arrows for adjacent maps.


METAR-TAF: